Decoded Metar for KPGV (PITT GREENVILLE in NC, USA) (IATA:PGV) | Meteo·Mobile Aviation Weather
aviador You're here:

KPGV Decoded Metar

PITT GREENVILLE in NC, USA
Report Time2019-06-17 14:30:00
UTC Time2019-06-17 14:35:42
Flight Rules vfr VFR
Wind240° at 11 Gusting to 14 kt
W.Decomp.*RWY 26: 10.8 kt HW 2.1 kt LCW
RWY 20: 7.2 kt HW 8.3 kt RCW
RWY 33: 1.7 kt HW 10.9 kt LCW
Visibility9999 m
Phenomena:N/A
Clouds:N/A
Expected CloudBase > 3,200 ft AGL from Temp-Dew spread
CeilingNone
Temp30°C (ISA +15)
Dew Point22°C (62% RH)
Heat Index33.2°C
QNH1019 hPa
Density Alt1,896 ft
Elevation26 ft
Report Wrong Elevation
Raw Report
METAR KPGV 171430Z AUTO 24011G14KT 10SM CLR 30/22 A3008 RMK AO2=

Extra information for KPGV:More info

Metar Taf Metar & Taf Last 4 Metars F.Rules Stats Wind Profile Meteogram Temp Stats Airport Information Weather charts Add Link Nearby VenuesMetar ALERT Operation Metar Decoded Social comments

AIRNAV info for KPGV